Time;durP1;ratioP1;P1;durP2;ratioP2;P2;SDS_P1;SDS_P2;PMS_P1;PMS_P2;Temp;Humidity;BMP_temperature;BMP_pressure;BME280_temperature;BME280_humidity;BME280_pressure;Samples;Min_cycle;Max_cycle;Signal;HPM_P1;HPM_P2
2021/01/02 00:00:07;;;;;;;14.52;7.53;;;;;;;2.41;81.37;100550.19;5008526;28;20137;-59
2021/01/02 00:02:42;;;;;;;12.77;8.23;;;;;;;2.51;80.79;100544.69;4998913;28;20065;-56
2021/01/02 00:05:10;;;;;;;14.85;8.38;;;;;;;2.38;82.71;100545.06;5010253;28;20574;-58
2021/01/02 00:07:57;;;;;;;13.02;7.45;;;;;;;2.23;82.78;100546.31;5000125;28;20050;-56
2021/01/02 00:10:28;;;;;;;13.27;7.72;;;;;;;2.14;82.78;100551.75;5009486;28;20657;-55
2021/01/02 00:13:04;;;;;;;15.65;7.63;;;;;;;2.28;83.69;100555.69;4989032;28;20072;-53
2021/01/02 00:15:45;;;;;;;13.45;8.68;;;;;;;2.17;83.17;100557.72;5010118;28;20107;-54
2021/01/02 00:18:22;;;;;;;11.57;7.40;;;;;;;2.23;83.35;100554.09;4986848;28;20042;-54
2021/01/02 00:20:51;;;;;;;15.07;6.97;;;;;;;2.01;83.24;100558.97;4993375;28;20073;-53
2021/01/02 00:23:38;;;;;;;17.02;8.32;;;;;;;1.97;83.33;100566.00;4983767;28;20054;-54
2021/01/02 00:26:05;;;;;;;;;;;;;;;2.02;83.44;100563.28;5011229;28;20085;-55
2021/01/02 00:28:35;;;;;;;12.88;7.38;;;;;;;1.86;83.95;100557.63;4998520;28;20232;-57
2021/01/02 00:31:11;;;;;;;15.68;7.25;;;;;;;1.85;83.86;100563.72;4988262;28;20046;-55
2021/01/02 00:34:14;;;;;;;11.98;7.15;;;;;;;2.21;82.94;100564.53;5000475;28;20073;-54
2021/01/02 00:37:09;;;;;;;17.42;7.88;;;;;;;2.13;82.28;100563.03;5000845;28;20057;-54
2021/01/02 00:39:58;;;;;;;13.07;6.95;;;;;;;2.03;81.84;100555.47;5006616;28;20041;-52
2021/01/02 00:42:25;;;;;;;11.18;7.65;;;;;;;2.07;82.17;100558.81;4986937;28;20046;-56
2021/01/02 00:44:56;;;;;;;14.00;7.43;;;;;;;2.02;81.95;100566.72;5004924;28;20075;-55
2021/01/02 00:47:25;;;;;;;12.80;7.00;;;;;;;1.97;82.09;100567.75;4986803;28;20057;-54
2021/01/02 00:49:54;;;;;;;13.40;6.80;;;;;;;2.03;82.28;100567.59;4988482;28;20140;-57
2021/01/02 00:52:45;;;;;;;12.13;6.55;;;;;;;1.81;82.31;100564.66;4985792;28;20045;-56
2021/01/02 00:55:24;;;;;;;14.73;6.80;;;;;;;1.80;83.08;100573.31;5003047;28;20109;-55
2021/01/02 00:57:58;;;;;;;11.32;6.35;;;;;;;1.81;82.95;100569.00;5005556;28;20054;-53
2021/01/02 01:00:29;;;;;;;9.27;5.85;;;;;;;1.83;82.28;100572.41;4991612;28;20045;-51
2021/01/02 01:03:06;;;;;;;12.20;5.90;;;;;;;2.00;81.22;100571.13;4987337;28;20070;-53
2021/01/02 01:05:45;;;;;;;13.90;6.38;;;;;;;2.17;80.33;100562.91;4991414;28;20042;-52
2021/01/02 01:08:15;;;;;;;9.75;5.75;;;;;;;2.21;80.98;100568.88;5008954;28;20049;-55
2021/01/02 01:10:42;;;;;;;10.30;6.13;;;;;;;2.00;80.74;100575.47;5009565;28;20141;-57
2021/01/02 01:13:20;;;;;;;12.55;6.78;;;;;;;1.73;82.06;100575.22;5004917;28;20050;-54
2021/01/02 01:15:48;;;;;;;9.90;6.38;;;;;;;1.61;82.75;100580.69;5009414;28;20448;-53
2021/01/02 01:18:18;;;;;;;14.60;6.10;;;;;;;1.37;83.17;100574.31;5008060;28;20671;-52
2021/01/02 01:20:46;;;;;;;8.18;5.07;;;;;;;1.61;83.51;100582.44;5010686;28;20058;-57
2021/01/02 01:23:26;;;;;;;11.43;5.53;;;;;;;1.65;82.33;100577.13;5006207;28;20100;-54
2021/01/02 01:26:01;;;;;;;9.93;5.68;;;;;;;1.61;82.91;100572.91;4985662;28;20053;-56
2021/01/02 01:28:31;;;;;;;10.25;6.13;;;;;;;1.56;82.68;100571.31;5006979;28;20156;-58
2021/01/02 01:31:00;;;;;;;9.43;5.57;;;;;;;1.26;83.96;100584.06;4991230;28;20065;-54
2021/01/02 01:33:29;;;;;;;11.00;5.70;;;;;;;1.20;83.67;100577.28;5006805;28;20083;-57
2021/01/02 01:36:02;;;;;;;8.63;5.75;;;;;;;1.05;84.10;100569.81;5008318;28;20120;-56
2021/01/02 01:38:30;;;;;;;14.68;6.20;;;;;;;0.71;85.73;100567.03;4990195;28;20049;-57
2021/01/02 01:41:02;;;;;;;9.65;5.90;;;;;;;0.66;86.66;100569.72;5009625;28;20150;-55
2021/01/02 01:44:04;;;;;;;9.77;6.45;;;;;;;0.58;86.67;100574.19;5006877;28;20054;-53
2021/01/02 01:46:33;;;;;;;9.60;5.70;;;;;;;0.39;86.82;100581.44;4952037;28;20076;-56
2021/01/02 01:49:06;;;;;;;9.75;5.50;;;;;;;0.22;87.26;100578.28;5005358;28;20050;-54
2021/01/02 01:51:56;;;;;;;11.07;5.75;;;;;;;0.25;87.99;100586.88;5006763;28;20634;-52
2021/01/02 01:54:45;;;;;;;8.55;5.35;;;;;;;0.27;87.94;100589.47;5007421;28;20060;-52
2021/01/02 01:57:21;;;;;;;10.57;6.43;;;;;;;0.33;88.02;100585.91;5008402;28;20054;-58
2021/01/02 01:59:57;;;;;;;11.60;5.15;;;;;;;0.33;87.50;100584.16;5008551;28;20053;-57
2021/01/02 02:02:46;;;;;;;9.52;5.18;;;;;;;0.30;88.00;100585.94;5004817;28;20050;-52
2021/01/02 02:05:14;;;;;;;12.75;5.97;;;;;;;0.72;86.38;100589.47;5006246;28;20050;-55
2021/01/02 02:08:00;;;;;;;9.02;4.88;;;;;;;0.79;85.23;100585.88;5008605;28;20034;-55
2021/01/02 02:10:33;;;;;;;8.32;5.70;;;;;;;0.72;85.11;100594.66;5010019;28;20049;-57
2021/01/02 02:13:21;;;;;;;7.57;4.53;;;;;;;0.55;85.31;100589.81;5008992;28;20728;-55
2021/01/02 02:15:52;;;;;;;7.60;4.53;;;;;;;0.57;nan;100587.19;5008273;28;20058;-53
2021/01/02 02:18:29;;;;;;;6.43;4.55;;;;;;;0.45;85.75;100586.53;5004754;28;20062;-58
2021/01/02 02:20:58;;;;;;;5.93;4.05;;;;;;;0.26;86.53;100585.13;5009028;28;20058;-56
2021/01/02 02:23:34;;;;;;;7.53;5.38;;;;;;;0.61;85.95;100581.06;4990711;28;20143;-57
2021/01/02 02:26:16;;;;;;;7.53;4.85;;;;;;;0.73;86.81;100583.44;5010418;28;20057;-55
2021/01/02 02:29:00;;;;;;;10.13;5.47;;;;;;;0.62;86.19;100583.63;4987115;28;20081;-56
2021/01/02 02:31:27;;;;;;;11.07;6.65;;;;;;;0.49;86.39;100582.97;5008955;28;20058;-55
2021/01/02 02:33:58;;;;;;;11.55;6.00;;;;;;;0.28;87.05;100591.16;4996220;28;20111;-54
2021/01/02 02:36:29;;;;;;;10.77;6.88;;;;;;;0.15;88.33;100587.91;4989340;28;20058;-55
2021/01/02 02:39:05;;;;;;;13.93;6.93;;;;;;;-0.04;88.87;100589.09;5001804;28;20060;-52
2021/01/02 02:41:48;;;;;;;10.57;7.03;;;;;;;-0.11;90.04;100595.25;5000427;28;20462;-55
2021/01/02 02:44:21;;;;;;;13.13;7.50;;;;;;;-0.26;90.38;100597.19;5004850;28;20062;-53
2021/01/02 02:46:47;;;;;;;14.60;8.80;;;;;;;-0.18;90.84;100599.69;5005291;28;20057;-60
2021/01/02 02:49:21;;;;;;;16.40;9.07;;;;;;;-0.34;91.13;100604.22;4988334;28;20061;-54
2021/01/02 02:51:55;;;;;;;19.25;9.95;;;;;;;-0.44;92.20;100601.78;4995715;28;20056;-53
2021/01/02 02:54:23;;;;;;;15.43;9.30;;;;;;;-0.51;92.78;100607.03;4987613;28;20057;-57
2021/01/02 02:56:50;;;;;;;19.67;11.00;;;;;;;-0.60;93.34;100611.47;5011518;28;20196;-56
2021/01/02 02:59:17;;;;;;;18.13;9.20;;;;;;;-0.69;93.34;100611.59;5005452;28;20061;-55
2021/01/02 03:01:47;;;;;;;20.05;10.98;;;;;;;-0.69;94.03;100611.59;5008230;28;20045;-57
2021/01/02 03:04:15;;;;;;;20.83;11.48;;;;;;;-0.57;94.19;100619.19;5007975;28;20108;-61
2021/01/02 03:06:45;;;;;;;21.90;11.90;;;;;;;-0.63;94.71;100612.38;5003282;28;20050;-55
2021/01/02 03:09:11;;;;;;;21.70;12.20;;;;;;;-0.75;94.80;100620.28;5004341;28;20060;-53
2021/01/02 03:11:41;;;;;;;27.25;13.55;;;;;;;-0.83;95.55;100615.22;5006256;28;20124;-56
2021/01/02 03:14:07;;;;;;;28.77;15.45;;;;;;;-0.75;96.21;100622.03;5003510;28;20054;-52
2021/01/02 03:16:34;;;;;;;30.58;14.80;;;;;;;-0.47;96.14;100618.19;4999966;28;20060;-56
2021/01/02 03:19:03;;;;;;;26.67;14.70;;;;;;;-0.55;95.73;100620.88;5010965;28;20073;-56
2021/01/02 03:21:30;;;;;;;33.28;16.48;;;;;;;-0.72;96.54;100622.84;5024569;23;20057;-57
2021/01/02 03:23:58;;;;;;;32.53;17.85;;;;;;;-0.75;97.24;100624.59;5010255;28;20061;-59
2021/01/02 03:26:25;;;;;;;34.75;18.40;;;;;;;-0.60;97.67;100625.25;4987353;28;20149;-59
2021/01/02 03:28:52;;;;;;;31.95;17.92;;;;;;;-0.50;97.05;100633.75;4994943;28;20069;-55
2021/01/02 03:31:19;;;;;;;40.03;20.33;;;;;;;-0.65;97.28;100632.22;5012249;28;20054;-58
2021/01/02 03:33:46;;;;;;;36.97;20.05;;;;;;;-0.71;97.50;100624.56;5005162;28;20477;-57
2021/01/02 03:36:14;;;;;;;42.67;21.30;;;;;;;-0.72;98.45;100634.88;5003491;28;20419;-56
2021/01/02 03:38:48;;;;;;;46.40;21.65;;;;;;;-0.80;98.52;100635.84;5006069;28;20064;-54
2021/01/02 03:41:15;;;;;;;43.92;21.58;;;;;;;-0.84;98.77;100646.25;4984067;28;20054;-54
2021/01/02 03:43:42;;;;;;;47.17;21.70;;;;;;;-0.74;98.97;100647.00;5000844;28;20066;-58
2021/01/02 03:46:08;;;;;;;43.80;22.02;;;;;;;-0.66;99.01;100648.59;4999636;28;20058;-54
2021/01/02 03:48:35;;;;;;;46.58;21.98;;;;;;;-0.82;98.59;100647.06;5008807;28;20111;-58
2021/01/02 03:51:02;;;;;;;44.58;22.10;;;;;;;-0.78;99.22;100648.75;5007239;28;20073;-57
2021/01/02 03:53:29;;;;;;;50.63;23.15;;;;;;;-0.83;98.96;100647.97;5003362;28;20493;-56
2021/01/02 03:55:56;;;;;;;45.30;21.13;;;;;;;-0.77;99.49;100651.34;5008526;28;20050;-63
2021/01/02 03:58:23;;;;;;;44.30;22.50;;;;;;;-0.74;99.35;100653.00;5004631;28;20062;-56
2021/01/02 04:00:49;;;;;;;47.15;22.65;;;;;;;-0.65;99.54;100652.06;5004593;28;20062;-57
2021/01/02 04:03:16;;;;;;;44.95;21.65;;;;;;;-0.27;98.94;100656.69;4999088;28;20088;-57
2021/01/02 04:05:46;;;;;;;47.15;21.67;;;;;;;-0.32;98.34;100659.34;5001085;28;20414;-59
2021/01/02 04:08:13;;;;;;;49.88;22.38;;;;;;;-0.36;98.20;100657.72;5008829;28;20060;-58
2021/01/02 04:10:40;;;;;;;39.70;21.38;;;;;;;-0.03;96.97;100663.28;4985800;28;20055;-57
2021/01/02 04:13:07;;;;;;;36.92;19.08;;;;;;;-0.06;96.95;100663.31;5001628;28;20053;-57
2021/01/02 04:15:34;;;;;;;41.38;21.30;;;;;;;-0.13;96.79;100665.16;5021217;28;20125;-56
2021/01/02 04:18:01;;;;;;;37.03;18.15;;;;;;;0.10;95.66;100663.94;5014218;28;20065;-59
2021/01/02 04:20:28;;;;;;;38.53;19.48;;;;;;;0.12;95.84;100663.03;5004768;28;20050;-56
2021/01/02 04:22:55;;;;;;;37.45;19.83;;;;;;;-0.04;96.09;100664.16;5000755;28;20533;-57
2021/01/02 04:25:22;;;;;;;33.97;18.60;;;;;;;0.14;95.17;100665.59;5002286;28;20054;-58
2021/01/02 04:27:49;;;;;;;34.42;18.13;;;;;;;0.35;93.98;100662.66;5002344;28;20058;-63
2021/01/02 04:30:16;;;;;;;39.75;18.67;;;;;;;0.04;94.71;100659.69;5000032;28;20050;-54
2021/01/02 04:32:48;;;;;;;31.67;18.35;;;;;;;-0.10;95.75;100662.50;5006929;28;20073;-55
2021/01/02 04:35:15;;;;;;;35.75;18.85;;;;;;;-0.26;96.21;100663.59;5011365;28;20418;-56
2021/01/02 04:37:42;;;;;;;35.50;19.15;;;;;;;-0.30;96.01;100669.69;5008462;28;20050;-55
2021/01/02 04:40:12;;;;;;;38.33;19.17;;;;;;;-0.13;95.46;100674.63;5001782;28;20093;-55
2021/01/02 04:42:40;;;;;;;30.60;17.15;;;;;;;-0.27;95.58;100678.28;5006800;28;20038;-57
2021/01/02 04:45:08;;;;;;;31.35;17.00;;;;;;;-0.16;95.78;100675.53;5007208;28;20411;-57
2021/01/02 04:47:36;;;;;;;31.55;16.67;;;;;;;-0.08;96.06;100678.88;5000278;28;20124;-55
2021/01/02 04:50:07;;;;;;;30.00;17.67;;;;;;;-0.15;95.73;100676.38;5003729;28;20080;-56
2021/01/02 04:52:35;;;;;;;29.55;17.23;;;;;;;0.14;94.68;100676.81;5010218;28;20161;-55
2021/01/02 04:55:04;;;;;;;30.00;16.80;;;;;;;0.41;93.94;100667.75;5007904;28;20057;-58
2021/01/02 04:57:35;;;;;;;28.23;15.48;;;;;;;0.64;91.76;100669.09;5010398;28;20077;-58
2021/01/02 05:00:06;;;;;;;30.88;16.77;;;;;;;0.61;91.95;100676.91;5007609;28;20062;-56
2021/01/02 05:02:33;;;;;;;26.77;14.63;;;;;;;0.60;91.77;100670.88;5007542;28;20065;-56
2021/01/02 05:05:00;;;;;;;27.77;14.75;;;;;;;0.45;91.25;100676.31;4989666;28;20053;-57
2021/01/02 05:07:29;;;;;;;25.27;14.05;;;;;;;0.49;91.09;100684.00;5009045;28;20511;-55
2021/01/02 05:09:56;;;;;;;27.23;14.48;;;;;;;0.64;90.18;100682.06;4987505;28;20502;-59
2021/01/02 05:12:28;;;;;;;22.85;13.73;;;;;;;0.65;90.21;100679.41;5008478;28;20439;-57
2021/01/02 05:14:59;;;;;;;22.33;14.00;;;;;;;0.76;89.58;100669.72;5006910;28;20621;-57
2021/01/02 05:17:28;;;;;;;23.00;13.07;;;;;;;0.64;89.13;100672.53;5002206;28;20051;-55
2021/01/02 05:20:02;;;;;;;23.05;12.73;;;;;;;0.71;89.06;100681.03;5003949;28;20571;-58
2021/01/02 05:22:29;;;;;;;19.45;12.50;;;;;;;0.59;88.97;100682.13;5005213;28;20049;-59
2021/01/02 05:25:10;;;;;;;21.08;13.13;;;;;;;0.61;88.78;100682.94;5001615;28;20054;-59
2021/01/02 05:27:37;;;;;;;19.67;13.20;;;;;;;0.39;89.66;100685.03;5004565;28;20058;-60
2021/01/02 05:30:15;;;;;;;21.42;13.15;;;;;;;0.52;89.78;100682.25;5007815;28;20486;-60
2021/01/02 05:33:04;;;;;;;24.10;13.05;;;;;;;0.49;89.43;100685.72;5006185;28;20065;-55
2021/01/02 05:35:45;;;;;;;20.90;11.68;;;;;;;0.59;88.27;100692.50;5006624;28;20076;-59
2021/01/02 05:38:22;;;;;;;22.40;11.73;;;;;;;0.79;87.29;100693.88;5003284;28;20058;-56
2021/01/02 05:40:58;;;;;;;19.83;11.65;;;;;;;0.63;87.85;100694.16;4996272;28;20665;-57
2021/01/02 05:43:27;;;;;;;19.85;11.68;;;;;;;0.39;89.64;100697.97;4997823;28;20057;-60
2021/01/02 05:45:55;;;;;;;22.52;11.73;;;;;;;0.33;89.10;100699.84;5009979;28;20049;-56
2021/01/02 05:48:22;;;;;;;17.27;11.18;;;;;;;0.40;89.08;100702.28;5004458;28;20541;-54
2021/01/02 05:50:51;;;;;;;19.50;11.75;;;;;;;0.43;89.34;100697.06;5010426;28;20088;-58
2021/01/02 05:53:27;;;;;;;21.75;13.30;;;;;;;0.32;89.48;100693.81;5006587;28;20937;-57
2021/01/02 05:55:57;;;;;;;14.15;8.90;;;;;;;0.30;89.84;100705.03;5005577;28;20065;-60
2021/01/02 05:58:25;;;;;;;22.35;11.57;;;;;;;0.43;89.54;100702.25;5008607;28;20601;-57
2021/01/02 06:01:05;;;;;;;18.75;11.60;;;;;;;0.77;88.49;100696.50;5008982;28;20062;-58
2021/01/02 06:03:33;;;;;;;19.23;11.02;;;;;;;0.98;87.07;100706.47;4999623;28;20478;-58
2021/01/02 06:06:03;;;;;;;21.00;12.38;;;;;;;0.97;87.08;100709.09;5010869;28;20062;-58
2021/01/02 06:08:33;;;;;;;19.83;11.82;;;;;;;0.95;87.25;100709.13;5004400;28;20054;-60
2021/01/02 06:11:04;;;;;;;20.30;12.50;;;;;;;0.63;86.94;100712.28;5007304;28;20490;-56
2021/01/02 06:13:33;;;;;;;20.42;12.10;;;;;;;0.64;88.24;100713.16;5003471;28;20061;-56
2021/01/02 06:16:02;;;;;;;20.55;11.35;;;;;;;0.85;86.83;100717.94;5005883;28;20054;-57
2021/01/02 06:18:32;;;;;;;18.90;11.10;;;;;;;0.75;86.39;100714.66;4994697;28;20050;-56
2021/01/02 06:21:06;;;;;;;20.65;13.25;;;;;;;0.72;86.25;100719.91;5006922;28;20549;-59
2021/01/02 06:23:35;;;;;;;19.95;11.18;;;;;;;0.43;88.36;100714.34;5000783;28;20236;-57
2021/01/02 06:26:05;;;;;;;19.13;12.13;;;;;;;0.27;88.50;100721.50;4990930;28;20054;-58
2021/01/02 06:28:36;;;;;;;26.08;13.90;;;;;;;0.07;89.59;100718.34;5001760;28;20407;-54
2021/01/02 06:31:08;;;;;;;24.48;12.75;;;;;;;0.31;89.21;100719.69;5005047;28;20076;-59
2021/01/02 06:33:36;;;;;;;22.50;13.77;;;;;;;0.36;88.74;100723.06;5003047;28;20149;-58
2021/01/02 06:36:03;;;;;;;22.38;13.10;;;;;;;0.20;89.21;100725.03;5011377;28;20062;-60
2021/01/02 06:38:30;;;;;;;22.02;13.05;;;;;;;0.04;90.35;100733.91;5009291;28;20054;-57
2021/01/02 06:40:57;;;;;;;23.08;13.13;;;;;;;-0.09;90.50;100738.38;5015475;28;20066;-59
2021/01/02 06:43:37;;;;;;;22.58;12.95;;;;;;;0.04;90.17;100744.25;5008573;28;20057;-56
2021/01/02 06:46:04;;;;;;;27.48;13.10;;;;;;;0.25;89.91;100747.41;4994160;28;20153;-55
2021/01/02 06:48:32;;;;;;;20.90;12.18;;;;;;;0.13;90.24;100749.31;4981670;28;20102;-54
2021/01/02 06:51:02;;;;;;;22.20;12.98;;;;;;;0.19;90.32;100750.09;5008573;28;20137;-59
2021/01/02 06:53:33;;;;;;;21.65;11.98;;;;;;;0.38;89.24;100753.25;5002781;28;20635;-58
2021/01/02 06:56:07;;;;;;;20.60;12.85;;;;;;;0.42;89.88;100754.06;5013671;28;20057;-57
2021/01/02 06:58:45;;;;;;;21.73;13.32;;;;;;;0.36;89.45;100751.56;5007213;28;20078;-59
2021/01/02 07:01:18;;;;;;;19.60;11.68;;;;;;;0.86;87.73;100758.53;5000737;28;20380;-57
2021/01/02 07:03:46;;;;;;;22.08;12.02;;;;;;;0.85;87.21;100761.13;5004030;28;20030;-58
2021/01/02 07:06:31;;;;;;;21.30;11.98;;;;;;;0.61;88.04;100762.41;5007355;28;20053;-56
2021/01/02 07:08:59;;;;;;;21.40;13.18;;;;;;;0.58;87.98;100760.69;5008297;28;20063;-58
2021/01/02 07:11:33;;;;;;;23.98;12.40;;;;;;;0.90;87.44;100769.69;5012789;28;20042;-57
2021/01/02 07:14:07;;;;;;;20.92;11.82;;;;;;;1.11;85.57;100765.88;5007916;28;20169;-55
2021/01/02 07:16:35;;;;;;;22.35;11.75;;;;;;;1.03;86.20;100776.38;5001864;28;20545;-59
2021/01/02 07:19:03;;;;;;;16.45;11.35;;;;;;;0.98;85.87;100773.00;4996840;28;20081;-56
2021/01/02 07:21:39;;;;;;;20.73;12.63;;;;;;;0.95;86.37;100780.84;4992662;28;20062;-58
2021/01/02 07:24:28;;;;;;;;;;;;;;;0.94;86.44;100782.56;5008694;28;20586;-57
2021/01/02 07:27:00;;;;;;;21.58;12.48;;;;;;;1.00;86.69;100773.84;4991381;28;19921;-55
2021/01/02 07:29:28;;;;;;;23.98;12.43;;;;;;;1.00;86.34;100784.22;5017629;28;20073;-54
2021/01/02 07:32:08;;;;;;;20.38;12.95;;;;;;;1.09;86.76;100791.00;5006652;28;20049;-56
2021/01/02 07:34:35;;;;;;;19.85;12.00;;;;;;;1.07;86.05;100798.78;5000174;28;20472;-58
2021/01/02 07:37:07;;;;;;;19.60;12.23;;;;;;;1.01;86.15;100796.28;4992048;28;20566;-57
2021/01/02 07:39:34;;;;;;;23.08;13.30;;;;;;;1.08;85.81;100802.22;5002099;28;20045;-55
2021/01/02 07:42:10;;;;;;;20.65;12.73;;;;;;;1.16;85.69;100805.53;4996824;28;20088;-57
2021/01/02 07:44:38;;;;;;;23.73;13.52;;;;;;;1.12;85.72;100809.06;4988779;28;20045;-60
2021/01/02 07:47:06;;;;;;;20.98;13.90;;;;;;;0.96;85.93;100814.53;5011096;28;20209;-57
2021/01/02 07:49:33;;;;;;;28.08;13.40;;;;;;;0.93;87.18;100809.38;5005590;28;20069;-56
2021/01/02 07:52:00;;;;;;;22.00;12.35;;;;;;;0.91;86.72;100815.47;5011226;28;20061;-57
2021/01/02 07:54:31;;;;;;;19.73;12.52;;;;;;;0.86;86.65;100820.75;5003832;28;20068;-57
2021/01/02 07:56:58;;;;;;;22.27;13.23;;;;;;;0.80;86.54;100827.75;4986988;28;20054;-57
2021/01/02 07:59:32;;;;;;;22.17;13.60;;;;;;;0.79;86.59;100824.28;5007480;28;20066;-60
2021/01/02 08:02:02;;;;;;;24.33;13.10;;;;;;;0.74;86.12;100826.09;5010132;28;20114;-57
2021/01/02 08:04:33;;;;;;;20.73;11.73;;;;;;;0.75;86.38;100831.25;5010686;28;20054;-56
2021/01/02 08:07:02;;;;;;;24.70;13.35;;;;;;;0.67;87.03;100817.56;5006541;28;20655;-59
2021/01/02 08:09:31;;;;;;;18.52;11.70;;;;;;;0.95;85.82;100828.38;5002650;28;20050;-57
2021/01/02 08:12:02;;;;;;;23.20;12.98;;;;;;;1.00;85.98;100825.69;5009321;28;20085;-57
2021/01/02 08:14:32;;;;;;;25.77;13.15;;;;;;;0.98;86.07;100825.72;5007105;28;20058;-55
2021/01/02 08:17:05;;;;;;;20.25;13.35;;;;;;;0.89;86.66;100835.38;5002582;28;20050;-57
2021/01/02 08:19:46;;;;;;;17.10;11.30;;;;;;;1.12;85.40;100838.44;5008524;28;20057;-57
2021/01/02 08:22:25;;;;;;;18.85;11.02;;;;;;;1.23;84.69;100846.06;5004472;28;20144;-57
2021/01/02 08:25:00;;;;;;;21.02;12.27;;;;;;;1.26;84.06;100843.38;4998540;28;20058;-54
2021/01/02 08:27:29;;;;;;;22.33;12.60;;;;;;;1.10;84.98;100841.97;5002811;28;20059;-56
2021/01/02 08:30:05;;;;;;;22.08;12.88;;;;;;;1.16;85.28;100842.69;4991314;28;20541;-56
2021/01/02 08:32:34;;;;;;;24.65;11.98;;;;;;;1.18;85.27;100848.72;5006011;28;20076;-60
2021/01/02 08:35:02;;;;;;;23.83;12.40;;;;;;;1.21;85.84;100853.84;5005887;28;20058;-56
2021/01/02 08:37:29;;;;;;;18.75;11.25;;;;;;;1.29;85.48;100851.13;5008952;28;20057;-63
2021/01/02 08:40:05;;;;;;;18.73;11.80;;;;;;;1.17;85.91;100862.59;4995493;28;20054;-58
2021/01/02 08:42:39;;;;;;;23.45;12.93;;;;;;;1.08;86.67;100861.84;5005709;28;20058;-59
2021/01/02 08:45:08;;;;;;;21.85;13.32;;;;;;;1.20;86.43;100857.31;4999398;28;20134;-58
2021/01/02 08:47:35;;;;;;;24.92;13.73;;;;;;;1.12;86.70;100863.50;4999276;28;20056;-58
2021/01/02 08:50:10;;;;;;;25.23;13.15;;;;;;;1.31;86.61;100862.34;5005559;28;20068;-58
2021/01/02 08:52:38;;;;;;;21.85;13.25;;;;;;;1.60;85.24;100868.75;5006789;28;20141;-58
2021/01/02 08:55:15;;;;;;;20.10;12.60;;;;;;;1.80;84.95;100868.38;5006056;28;20053;-58
2021/01/02 08:57:53;;;;;;;24.90;13.90;;;;;;;1.97;83.81;100868.91;4986273;28;20061;-59
2021/01/02 09:00:31;;;;;;;19.65;11.82;;;;;;;2.21;82.84;100868.44;5009783;28;20049;-58
2021/01/02 09:03:04;;;;;;;24.45;13.15;;;;;;;2.03;82.14;100863.63;5003764;28;20541;-57
2021/01/02 09:05:38;;;;;;;21.88;13.45;;;;;;;2.02;83.93;100867.91;5017304;28;20054;-59
2021/01/02 09:08:06;;;;;;;20.92;13.02;;;;;;;1.98;83.88;100874.09;5012642;28;20153;-57
2021/01/02 09:10:37;;;;;;;22.35;12.30;;;;;;;2.15;82.78;100872.88;5009731;28;20053;-57
2021/01/02 09:13:08;;;;;;;24.75;13.07;;;;;;;2.10;83.32;100877.31;5007036;28;20534;-57
2021/01/02 09:15:39;;;;;;;21.35;12.65;;;;;;;2.10;82.69;100877.31;5006541;28;20582;-58
2021/01/02 09:18:06;;;;;;;22.58;12.50;;;;;;;2.02;82.67;100867.06;5004879;28;20058;-55
2021/01/02 09:20:33;;;;;;;19.13;12.10;;;;;;;1.96;82.28;100869.81;5009892;28;20430;-57
2021/01/02 09:23:00;;;;;;;18.50;12.15;;;;;;;1.96;83.11;100882.78;5025399;22;20111;-58
2021/01/02 09:25:28;;;;;;;20.88;12.25;;;;;;;2.14;82.29;100886.75;5024090;28;20045;-56
2021/01/02 09:27:55;;;;;;;20.42;12.48;;;;;;;2.36;81.44;100885.44;5022880;28;20544;-58
2021/01/02 09:30:22;;;;;;;22.50;12.50;;;;;;;2.64;80.16;100885.69;5008233;28;20148;-56
2021/01/02 09:32:49;;;;;;;21.50;12.35;;;;;;;2.88;77.90;100891.22;5006085;28;20058;-56
2021/01/02 09:35:16;;;;;;;19.40;12.48;;;;;;;2.97;78.32;100884.09;5009945;28;20414;-56
2021/01/02 09:37:43;;;;;;;19.15;12.18;;;;;;;3.27;77.68;100895.47;5021048;28;20140;-55
2021/01/02 09:40:15;;;;;;;20.05;12.77;;;;;;;3.40;76.37;100892.59;5015872;28;20390;-59
2021/01/02 09:42:42;;;;;;;21.77;12.52;;;;;;;3.52;76.47;100893.13;5022690;28;20041;-59
2021/01/02 09:45:09;;;;;;;19.80;12.43;;;;;;;3.69;75.53;100900.50;5022003;28;20627;-53
2021/01/02 09:47:36;;;;;;;19.00;11.60;;;;;;;3.51;75.79;100899.25;5015913;28;20052;-57
2021/01/02 09:50:04;;;;;;;20.73;12.07;;;;;;;3.32;75.68;100897.97;5024295;28;20149;-52
2021/01/02 09:52:31;;;;;;;19.48;12.48;;;;;;;2.90;77.99;100897.25;5022459;28;20049;-58
2021/01/02 09:54:57;;;;;;;19.77;12.45;;;;;;;2.54;79.40;100892.84;5023217;28;20072;-51
2021/01/02 09:57:24;;;;;;;19.55;12.77;;;;;;;2.51;79.47;100899.84;5026557;28;20049;-51
2021/01/02 09:59:52;;;;;;;20.60;12.50;;;;;;;2.32;81.13;100906.31;5007705;28;20053;-57
2021/01/02 10:02:20;;;;;;;21.67;13.70;;;;;;;2.45;80.04;100899.97;5016736;28;20057;-57
2021/01/02 10:04:47;;;;;;;23.23;13.45;;;;;;;2.52;80.18;100905.03;5018093;28;20638;-55
2021/01/02 10:07:16;;;;;;;22.45;12.70;;;;;;;2.48;79.63;100905.97;5023823;28;20049;-50
2021/01/02 10:09:44;;;;;;;25.27;13.38;;;;;;;2.46;79.88;100904.28;5023642;28;20049;-51
2021/01/02 10:12:12;;;;;;;25.23;13.43;;;;;;;2.57;82.99;100898.84;5024400;28;20138;-56
2021/01/02 10:14:39;;;;;;;25.98;14.25;;;;;;;2.61;82.52;100896.19;5023681;28;20046;-56
2021/01/02 10:17:06;;;;;;;22.67;13.30;;;;;;;2.54;80.87;100899.78;5023987;28;20352;-54
2021/01/02 10:19:33;;;;;;;23.27;13.60;;;;;;;2.88;79.33;100897.31;5006016;28;20140;-51
2021/01/02 10:21:59;;;;;;;20.98;13.23;;;;;;;2.83;78.33;100893.91;5025139;28;20430;-54
2021/01/02 10:24:28;;;;;;;22.95;12.75;;;;;;;2.64;79.04;100897.84;5021172;28;20045;-55
2021/01/02 10:26:56;;;;;;;22.35;13.82;;;;;;;2.47;80.32;100893.00;5019020;28;20225;-54
2021/01/02 10:29:23;;;;;;;24.77;14.00;;;;;;;2.42;81.04;100898.28;5001461;28;20050;-53
2021/01/02 10:31:50;;;;;;;25.27;15.27;;;;;;;2.41;80.19;100890.53;5021902;28;20072;-52
2021/01/02 10:34:17;;;;;;;22.48;12.90;;;;;;;2.31;81.47;100889.88;5021319;28;20133;-56
2021/01/02 10:36:44;;;;;;;24.75;14.52;;;;;;;2.46;81.02;100881.75;5023478;28;20049;-54
2021/01/02 10:39:11;;;;;;;24.02;12.80;;;;;;;2.54;80.91;100881.59;5023295;28;20453;-55
2021/01/02 10:41:38;;;;;;;21.70;13.85;;;;;;;2.58;80.52;100880.63;5025634;28;20059;-57
2021/01/02 10:44:05;;;;;;;22.85;13.10;;;;;;;2.82;80.59;100876.63;5024432;28;20380;-53
2021/01/02 10:46:32;;;;;;;21.75;13.68;;;;;;;2.76;80.35;100869.81;4992251;28;20054;-55
2021/01/02 10:48:59;;;;;;;25.42;13.40;;;;;;;2.87;80.56;100874.75;5022859;28;20053;-54
2021/01/02 10:51:26;;;;;;;25.67;14.98;;;;;;;2.96;80.62;100876.28;5026832;28;20054;-56
2021/01/02 10:53:52;;;;;;;23.63;13.73;;;;;;;3.09;79.64;100869.91;5023288;28;20637;-55
2021/01/02 10:56:19;;;;;;;25.17;14.85;;;;;;;3.14;79.31;100872.41;5023364;28;20272;-58
2021/01/02 10:58:46;;;;;;;23.95;14.88;;;;;;;3.17;78.98;100867.97;5022866;28;20490;-55
2021/01/02 11:01:13;;;;;;;24.48;14.73;;;;;;;3.35;78.13;100864.06;5021872;28;20069;-56
2021/01/02 11:03:40;;;;;;;22.42;15.10;;;;;;;3.35;77.93;100861.47;5023988;28;20088;-56
2021/01/02 11:06:09;;;;;;;26.33;15.45;;;;;;;3.17;78.50;100859.34;5021646;28;20065;-57
2021/01/02 11:08:36;;;;;;;23.77;14.85;;;;;;;2.91;79.87;100860.81;5021827;28;20076;-57
2021/01/02 11:11:04;;;;;;;26.83;15.13;;;;;;;3.17;79.83;100867.13;5025035;28;20161;-54
2021/01/02 11:13:31;;;;;;;23.90;14.98;;;;;;;3.29;79.28;100857.28;5025012;28;20057;-55
2021/01/02 11:15:58;;;;;;;26.55;15.55;;;;;;;3.37;78.65;100858.81;5020855;28;20049;-57
2021/01/02 11:18:26;;;;;;;24.45;15.32;;;;;;;3.38;78.09;100851.00;5019998;28;20099;-57
2021/01/02 11:20:52;;;;;;;28.05;15.52;;;;;;;3.19;78.94;100852.31;5025598;28;20532;-54
2021/01/02 11:23:20;;;;;;;28.55;15.95;;;;;;;3.09;79.59;100850.84;5016726;28;20061;-58
2021/01/02 11:25:48;;;;;;;26.95;16.50;;;;;;;3.07;79.80;100852.66;5008368;28;20045;-57
2021/01/02 11:28:15;;;;;;;27.33;16.35;;;;;;;3.12;79.95;100856.84;5016936;28;20057;-57
2021/01/02 11:30:41;;;;;;;27.50;15.38;;;;;;;3.22;79.09;100858.31;5017946;28;20061;-51
2021/01/02 11:33:09;;;;;;;29.95;16.25;;;;;;;2.93;80.12;100853.84;5017630;28;20046;-53
2021/01/02 11:35:35;;;;;;;27.75;16.15;;;;;;;3.00;81.47;100855.38;5018868;28;20407;-57